createdAt,value
2022-12-28T00:00:04.405Z,8.14
2022-12-28T00:03:01.654Z,7.38
2022-12-28T00:05:30.825Z,6.15
2022-12-28T00:08:00.101Z,5.71
2022-12-28T00:11:08.239Z,7.22
2022-12-28T00:13:18.051Z,8.20
2022-12-28T00:15:47.257Z,8.46
2022-12-28T00:18:16.344Z,7.37
2022-12-28T00:20:45.470Z,6.33
2022-12-28T00:23:14.447Z,5.70
2022-12-28T00:25:43.380Z,6.72
2022-12-28T00:28:12.652Z,8.01
2022-12-28T00:30:41.615Z,7.39
2022-12-28T00:33:10.520Z,6.25
2022-12-28T00:35:40.538Z,5.62
2022-12-28T00:38:10.231Z,6.55
2022-12-28T00:40:39.442Z,7.90
2022-12-28T00:43:08.522Z,8.34
2022-12-28T00:45:37.592Z,7.26
2022-12-28T00:48:06.441Z,6.24
2022-12-28T00:50:35.711Z,5.59
2022-12-28T00:53:04.868Z,6.38
2022-12-28T00:55:33.728Z,7.90
2022-12-28T00:58:02.887Z,7.60
2022-12-28T01:00:31.720Z,6.60
2022-12-28T01:03:00.779Z,5.91
2022-12-28T01:05:30.182Z,6.86
2022-12-28T01:07:59.072Z,8.12
2022-12-28T01:10:27.959Z,7.69
2022-12-28T01:12:58.854Z,6.40
2022-12-28T01:15:28.194Z,5.64
2022-12-28T01:17:57.277Z,6.40
2022-12-28T01:20:27.611Z,7.61
2022-12-28T01:22:56.593Z,7.82
2022-12-28T01:25:25.601Z,7.46
2022-12-28T01:27:54.666Z,6.46
2022-12-28T01:30:23.677Z,5.63
2022-12-28T01:32:52.564Z,6.21
2022-12-28T01:35:21.729Z,7.31
2022-12-28T01:37:50.559Z,8.06
2022-12-28T01:40:19.503Z,8.52
2022-12-28T01:42:48.539Z,7.61
2022-12-28T01:45:17.947Z,6.55
2022-12-28T01:47:46.930Z,5.75
2022-12-28T01:50:16.026Z,5.17
2022-12-28T01:52:45.321Z,5.44
2022-12-28T01:55:14.196Z,6.78
2022-12-28T01:57:43.216Z,7.83
2022-12-28T02:00:12.404Z,8.64
2022-12-28T02:02:41.387Z,8.63
2022-12-28T02:05:10.600Z,7.53
2022-12-28T02:07:39.697Z,6.58
2022-12-28T02:10:44.613Z,5.87
2022-12-28T02:12:57.687Z,5.26
2022-12-28T02:15:30.504Z,4.83
2022-12-28T02:17:59.676Z,4.48
2022-12-28T02:20:28.718Z,4.20
2022-12-28T02:22:57.618Z,5.01
2022-12-28T02:25:26.700Z,6.21
2022-12-28T02:27:55.593Z,7.29
2022-12-28T02:30:26.184Z,8.11
2022-12-28T02:32:55.418Z,7.24
2022-12-28T02:35:24.508Z,5.93
2022-12-28T02:37:53.398Z,4.96
2022-12-28T02:40:22.756Z,4.88
2022-12-28T02:42:51.607Z,6.05
2022-12-28T02:45:40.639Z,6.92
2022-12-28T02:48:27.463Z,7.09
2022-12-28T02:50:57.183Z,6.59
2022-12-28T02:53:26.259Z,5.57
2022-12-28T02:56:10.825Z,5.59
2022-12-28T02:58:39.915Z,6.65
2022-12-28T03:01:08.838Z,7.37
2022-12-28T03:03:39.028Z,7.90
2022-12-28T03:06:30.243Z,8.01
2022-12-28T03:08:59.509Z,6.75
2022-12-28T03:11:28.622Z,5.74
2022-12-28T03:13:57.779Z,5.11
2022-12-28T03:16:26.823Z,6.01
2022-12-28T03:19:24.946Z,7.09
2022-12-28T03:22:11.501Z,7.05
2022-12-28T03:24:58.110Z,5.47
2022-12-28T03:27:45.940Z,4.97
2022-12-28T03:30:34.865Z,6.44
2022-12-28T03:33:05.649Z,7.28
2022-12-28T03:35:34.735Z,6.06
2022-12-28T03:38:03.640Z,4.98
2022-12-28T03:40:32.917Z,6.01
2022-12-28T03:43:19.950Z,6.94
2022-12-28T03:45:49.116Z,5.70
2022-12-28T03:48:19.047Z,5.02
2022-12-28T03:50:48.092Z,5.88
2022-12-28T03:53:18.052Z,6.91
2022-12-28T03:55:47.044Z,6.51
2022-12-28T03:58:15.874Z,5.33
2022-12-28T04:00:44.727Z,4.69
2022-12-28T04:03:13.898Z,5.82
2022-12-28T04:05:42.923Z,6.71
2022-12-28T04:08:12.213Z,7.19
2022-12-28T04:10:41.307Z,7.32
2022-12-28T04:13:11.119Z,6.51
2022-12-28T04:16:09.530Z,5.16
2022-12-28T04:18:39.116Z,4.58
2022-12-28T04:21:07.998Z,5.53
2022-12-28T04:23:38.014Z,6.43
2022-12-28T04:26:14.994Z,7.19
2022-12-28T04:28:44.697Z,7.65
2022-12-28T04:31:29.855Z,6.85
2022-12-28T04:34:19.446Z,5.49
2022-12-28T04:36:55.005Z,4.76
2022-12-28T04:39:24.501Z,5.53
2022-12-28T04:41:53.492Z,6.84
2022-12-28T04:44:22.383Z,6.28
2022-12-28T04:46:51.459Z,4.94
2022-12-28T04:49:20.477Z,3.94
2022-12-28T04:51:49.462Z,3.34
2022-12-28T04:54:18.761Z,3.96
2022-12-28T04:56:47.663Z,5.42
2022-12-28T04:59:16.643Z,6.31
2022-12-28T05:01:45.904Z,7.08
2022-12-28T05:04:15.042Z,7.39
2022-12-28T05:06:43.890Z,6.37
2022-12-28T05:09:13.127Z,5.23
2022-12-28T05:11:42.124Z,4.28
2022-12-28T05:14:11.120Z,3.58
2022-12-28T05:16:41.101Z,3.07
2022-12-28T05:19:10.136Z,2.67
2022-12-28T05:21:39.028Z,2.37
2022-12-28T05:24:08.212Z,2.11
2022-12-28T05:26:37.824Z,1.89
2022-12-28T05:29:06.662Z,2.45
2022-12-28T05:31:35.626Z,4.11
2022-12-28T05:34:04.689Z,5.16
2022-12-28T05:36:36.960Z,6.32
2022-12-28T05:39:06.288Z,6.41
2022-12-28T05:41:35.145Z,5.20
2022-12-28T05:44:04.481Z,4.22
2022-12-28T05:46:33.578Z,4.44
2022-12-28T05:49:02.745Z,5.61
2022-12-28T05:51:31.662Z,6.55
2022-12-28T05:54:00.822Z,7.16
2022-12-28T05:56:29.677Z,6.60
2022-12-28T05:58:58.607Z,5.44
2022-12-28T06:01:27.648Z,4.57
2022-12-28T06:03:56.707Z,3.91
2022-12-28T06:06:25.609Z,3.41
2022-12-28T06:08:54.681Z,3.00
2022-12-28T06:11:23.514Z,2.64
2022-12-28T06:13:52.616Z,2.33
2022-12-28T06:16:21.741Z,2.04
2022-12-28T06:18:52.086Z,1.80
2022-12-28T06:21:20.965Z,1.59
2022-12-28T06:23:50.177Z,1.41
2022-12-28T06:26:18.997Z,1.25
2022-12-28T06:28:48.056Z,1.12
2022-12-28T06:31:16.997Z,1.35
2022-12-28T06:33:45.902Z,2.88
2022-12-28T06:36:19.658Z,4.43
2022-12-28T06:38:49.611Z,5.61
2022-12-28T06:41:18.637Z,6.35
2022-12-28T06:43:47.541Z,6.99
2022-12-28T06:46:16.960Z,6.85
2022-12-28T06:48:46.028Z,5.75
2022-12-28T06:51:14.967Z,4.83
2022-12-28T06:53:43.961Z,4.15
2022-12-28T06:56:12.907Z,3.63
2022-12-28T06:58:41.693Z,3.24
2022-12-28T07:01:10.862Z,2.93
2022-12-28T07:03:39.774Z,2.66
2022-12-28T07:06:08.833Z,2.43
2022-12-28T07:08:37.769Z,2.21
2022-12-28T07:11:06.766Z,2.04
2022-12-28T07:13:35.645Z,2.22
2022-12-28T07:16:05.152Z,3.68
2022-12-28T07:18:34.052Z,5.21
2022-12-28T07:21:03.133Z,6.28
2022-12-28T07:23:32.348Z,7.01
2022-12-28T07:26:01.526Z,6.68
2022-12-28T07:28:30.365Z,5.66
2022-12-28T07:30:59.886Z,4.89
2022-12-28T07:33:28.812Z,4.29
2022-12-28T07:35:57.710Z,3.82
2022-12-28T07:38:26.837Z,4.24
2022-12-28T07:40:55.787Z,5.81
2022-12-28T07:43:24.656Z,6.77
2022-12-28T07:45:54.193Z,6.18
2022-12-28T07:48:23.377Z,5.23
2022-12-28T07:50:52.269Z,4.48
2022-12-28T07:53:22.337Z,3.98
2022-12-28T07:55:51.382Z,3.67
2022-12-28T07:58:20.275Z,3.48
2022-12-28T08:00:50.002Z,3.79
2022-12-28T08:03:18.893Z,5.52
2022-12-28T08:05:47.853Z,6.45
2022-12-28T08:08:17.056Z,5.75
2022-12-28T08:10:45.955Z,5.01
2022-12-28T08:13:14.840Z,4.47
2022-12-28T08:15:44.091Z,4.22
2022-12-28T08:18:14.051Z,5.54
2022-12-28T08:20:43.000Z,6.82
2022-12-28T08:23:11.938Z,6.96
2022-12-28T08:25:40.829Z,6.25
2022-12-28T08:28:09.938Z,5.41
2022-12-28T08:30:39.117Z,4.83
2022-12-28T08:33:08.010Z,4.38
2022-12-28T08:35:37.260Z,4.03
2022-12-28T08:38:06.302Z,3.81
2022-12-28T08:40:35.404Z,4.49
2022-12-28T08:43:05.054Z,6.13
2022-12-28T08:45:34.117Z,7.14
2022-12-28T08:48:03.112Z,6.62
2022-12-28T08:50:32.189Z,5.73
2022-12-28T08:53:01.382Z,5.11
2022-12-28T08:55:30.227Z,4.67
2022-12-28T08:57:59.167Z,4.33
2022-12-28T09:00:28.253Z,4.82
2022-12-28T09:02:57.507Z,6.50
2022-12-28T09:05:26.419Z,7.58
2022-12-28T09:07:59.569Z,6.85
2022-12-28T09:10:28.830Z,5.96
2022-12-28T09:12:57.991Z,5.48
2022-12-28T09:15:26.913Z,5.16
2022-12-28T09:17:55.814Z,4.92
2022-12-28T09:20:25.125Z,4.76
2022-12-28T09:22:53.953Z,5.56
2022-12-28T09:25:22.888Z,7.19
2022-12-28T09:27:57.522Z,7.87
2022-12-28T09:30:28.346Z,7.19
2022-12-28T09:33:18.218Z,6.49
2022-12-28T09:35:47.153Z,5.93
2022-12-28T09:38:16.428Z,5.59
2022-12-28T09:40:45.407Z,5.33
2022-12-28T09:43:14.356Z,5.23
2022-12-28T09:45:43.909Z,6.40
2022-12-28T09:48:13.055Z,7.68
2022-12-28T09:50:42.809Z,7.48
2022-12-28T09:53:11.812Z,6.93
2022-12-28T09:55:40.693Z,6.49
2022-12-28T09:58:09.988Z,6.19
2022-12-28T10:00:39.040Z,5.96
2022-12-28T10:03:08.145Z,5.78
2022-12-28T10:05:37.395Z,5.64
2022-12-28T10:08:06.451Z,5.56
2022-12-28T10:10:35.563Z,5.52
2022-12-28T10:13:09.373Z,5.51
2022-12-28T10:15:45.780Z,5.51
2022-12-28T10:18:14.934Z,5.53
2022-12-28T10:20:43.764Z,5.54
2022-12-28T10:23:12.818Z,5.56
2022-12-28T10:25:41.708Z,5.56
2022-12-28T10:28:10.846Z,5.56
2022-12-28T10:30:39.863Z,5.58
2022-12-28T10:33:13.794Z,5.64
2022-12-28T10:35:43.316Z,5.66
2022-12-28T10:38:12.218Z,5.71
2022-12-28T10:40:42.734Z,5.72
2022-12-28T10:43:11.718Z,5.74
2022-12-28T10:45:40.646Z,5.77
2022-12-28T10:48:09.600Z,5.81
2022-12-28T10:50:39.823Z,5.85
2022-12-28T10:53:08.919Z,5.85
2022-12-28T10:55:39.962Z,5.83
2022-12-28T11:00:57.965Z,5.87
2022-12-28T11:03:27.270Z,5.90
2022-12-28T11:05:57.414Z,5.95
2022-12-28T11:08:26.468Z,5.99
2022-12-28T11:10:55.521Z,5.99
2022-12-28T11:13:24.518Z,6.01
2022-12-28T11:15:53.726Z,6.03
2022-12-28T11:18:23.635Z,6.04
2022-12-28T11:20:52.636Z,6.08
2022-12-28T11:23:21.444Z,6.06
2022-12-28T11:25:50.400Z,6.05
2022-12-28T11:28:19.221Z,6.08
2022-12-28T11:30:51.170Z,6.13
2022-12-28T11:33:20.347Z,6.19
2022-12-28T11:35:49.182Z,6.24
2022-12-28T11:38:17.981Z,6.27
2022-12-28T11:40:47.110Z,6.32
2022-12-28T11:43:16.000Z,6.40
2022-12-28T11:45:44.890Z,6.43
2022-12-28T11:48:13.985Z,6.49
2022-12-28T11:50:43.081Z,6.55
2022-12-28T11:53:14.019Z,6.61
2022-12-28T11:55:43.443Z,6.65
2022-12-28T11:58:12.223Z,6.67
2022-12-28T12:00:41.039Z,6.69
2022-12-28T12:03:10.352Z,6.71
2022-12-28T12:05:39.305Z,6.71
2022-12-28T12:08:08.184Z,6.73
2022-12-28T12:10:39.147Z,6.75
2022-12-28T12:13:08.038Z,6.76
2022-12-28T12:15:36.998Z,6.83
2022-12-28T12:18:06.500Z,6.89
2022-12-28T12:20:35.519Z,6.91
2022-12-28T12:23:04.589Z,6.97
2022-12-28T12:25:33.886Z,7.05
2022-12-28T12:28:03.304Z,7.12
2022-12-28T12:30:32.571Z,7.22
2022-12-28T12:33:01.772Z,7.34
2022-12-28T12:35:30.788Z,7.46
2022-12-28T12:37:59.875Z,7.59
2022-12-28T12:40:29.069Z,7.72
2022-12-28T12:42:58.065Z,7.83
2022-12-28T12:45:26.955Z,7.89
2022-12-28T12:47:56.065Z,7.94
2022-12-28T12:50:24.922Z,7.98
2022-12-28T12:52:53.924Z,8.01
2022-12-28T12:55:23.028Z,8.06
2022-12-28T12:57:51.918Z,8.07
2022-12-28T13:00:20.803Z,8.11
2022-12-28T13:02:50.137Z,8.09
2022-12-28T13:05:19.051Z,8.07
2022-12-28T13:07:47.902Z,8.03
2022-12-28T13:10:17.290Z,8.04
2022-12-28T13:12:46.184Z,8.01
2022-12-28T13:15:15.286Z,7.97
2022-12-28T13:17:44.582Z,7.89
2022-12-28T13:20:13.469Z,7.84
2022-12-28T13:22:42.385Z,7.83
2022-12-28T13:25:11.492Z,7.79
2022-12-28T13:27:40.349Z,7.78
2022-12-28T13:30:09.230Z,7.80
2022-12-28T13:32:40.532Z,7.79
2022-12-28T13:35:09.466Z,7.76
2022-12-28T13:37:38.354Z,7.76
2022-12-28T13:40:07.362Z,7.72
2022-12-28T13:42:36.660Z,7.66
2022-12-28T13:45:05.635Z,7.65
2022-12-28T13:47:35.037Z,7.62
2022-12-28T13:50:04.252Z,7.57
2022-12-28T13:52:33.148Z,7.53
2022-12-28T13:55:02.338Z,7.48
2022-12-28T13:57:50.112Z,7.50
2022-12-28T14:00:20.401Z,7.54
2022-12-28T14:02:49.227Z,7.52
2022-12-28T14:05:18.294Z,7.50
2022-12-28T14:07:47.366Z,7.48
2022-12-28T14:10:16.349Z,7.48
2022-12-28T14:12:45.238Z,7.51
2022-12-28T14:15:14.779Z,7.50
2022-12-28T14:17:43.739Z,7.45
2022-12-28T14:20:13.757Z,7.41
2022-12-28T14:22:42.950Z,7.37
2022-12-28T14:25:12.096Z,7.27
2022-12-28T14:27:41.036Z,7.26
2022-12-28T14:30:10.127Z,7.22
2022-12-28T14:32:42.902Z,7.13
2022-12-28T14:35:12.306Z,7.08
2022-12-28T14:37:41.210Z,7.01
2022-12-28T14:40:10.227Z,6.90
2022-12-28T14:42:39.407Z,6.83
2022-12-28T14:45:08.349Z,6.73
2022-12-28T14:47:37.686Z,6.67
2022-12-28T14:50:06.783Z,6.64
2022-12-28T14:52:36.366Z,6.61
2022-12-28T14:55:05.592Z,6.59
2022-12-28T14:57:34.644Z,6.57
2022-12-28T15:00:04.106Z,6.51
2022-12-28T15:02:33.203Z,6.47
2022-12-28T15:05:03.243Z,6.42
2022-12-28T15:07:32.103Z,6.39
2022-12-28T15:10:02.405Z,6.35
2022-12-28T15:12:31.602Z,6.32
2022-12-28T15:15:00.497Z,6.30
2022-12-28T15:17:33.503Z,6.26
2022-12-28T15:20:03.031Z,6.25
2022-12-28T15:22:31.926Z,6.23
2022-12-28T15:25:00.762Z,6.21
2022-12-28T15:27:29.969Z,6.19
2022-12-28T15:30:07.161Z,6.15
2022-12-28T15:32:37.482Z,6.12
2022-12-28T15:35:06.658Z,6.07
2022-12-28T15:37:35.720Z,6.02
2022-12-28T15:40:05.058Z,5.95
2022-12-28T15:42:40.147Z,5.89
2022-12-28T15:45:10.530Z,5.82
2022-12-28T15:47:39.405Z,5.75
2022-12-28T15:50:08.510Z,5.69
2022-12-28T15:52:37.697Z,5.61
2022-12-28T15:55:06.586Z,5.55
2022-12-28T15:57:35.440Z,5.50
2022-12-28T16:00:05.088Z,5.45
2022-12-28T16:02:34.186Z,5.39
2022-12-28T16:05:04.098Z,5.34
2022-12-28T16:07:33.199Z,5.29
2022-12-28T16:10:02.494Z,5.23
2022-12-28T16:12:31.559Z,5.17
2022-12-28T16:15:00.673Z,5.13
2022-12-28T16:17:29.515Z,5.08
2022-12-28T16:19:58.312Z,5.03
2022-12-28T16:22:27.549Z,4.99
2022-12-28T16:24:56.404Z,4.94
2022-12-28T16:27:25.336Z,4.89
2022-12-28T16:29:58.774Z,4.85
2022-12-28T16:32:28.249Z,4.81
2022-12-28T16:34:57.428Z,4.78
2022-12-28T16:37:26.535Z,5.03
2022-12-28T16:39:55.505Z,6.51
2022-12-28T16:42:24.506Z,8.01
2022-12-28T16:44:53.463Z,8.51
2022-12-28T16:47:22.290Z,7.80
2022-12-28T16:49:51.390Z,7.07
2022-12-28T16:52:20.439Z,6.55
2022-12-28T16:54:49.317Z,6.17
2022-12-28T16:57:18.323Z,5.90
2022-12-28T16:59:47.169Z,5.67
2022-12-28T17:02:16.240Z,5.48
2022-12-28T17:04:45.872Z,5.32
2022-12-28T17:07:14.679Z,5.19
2022-12-28T17:09:50.017Z,5.09
2022-12-28T17:12:19.492Z,5.50
2022-12-28T17:14:48.579Z,7.12
2022-12-28T17:17:17.391Z,8.46
2022-12-28T17:19:46.479Z,7.76
2022-12-28T17:22:16.275Z,7.04
2022-12-28T17:24:45.255Z,6.54
2022-12-28T17:27:18.864Z,6.19
2022-12-28T17:29:48.202Z,5.92
2022-12-28T17:32:17.253Z,5.74
2022-12-28T17:34:46.243Z,5.56
2022-12-28T17:37:15.047Z,5.43
2022-12-28T17:39:44.232Z,5.31
2022-12-28T17:42:13.039Z,5.20
2022-12-28T17:44:42.038Z,5.10
2022-12-28T17:47:11.158Z,5.01
2022-12-28T17:49:40.135Z,4.92
2022-12-28T17:52:09.091Z,4.84
2022-12-28T17:54:38.141Z,4.76
2022-12-28T17:57:07.092Z,5.33
2022-12-28T17:59:35.968Z,6.99
2022-12-28T18:02:05.404Z,7.84
2022-12-28T18:04:35.940Z,7.22
2022-12-28T18:07:04.842Z,6.58
2022-12-28T18:09:33.981Z,6.07
2022-12-28T18:12:03.303Z,5.65
2022-12-28T18:14:32.273Z,5.36
2022-12-28T18:17:01.435Z,5.13
2022-12-28T18:19:30.467Z,5.55
2022-12-28T18:21:59.361Z,7.16
2022-12-28T18:24:29.063Z,7.41
2022-12-28T18:26:58.118Z,6.65
2022-12-28T18:29:26.954Z,6.02
2022-12-28T18:31:56.413Z,5.61
2022-12-28T18:34:25.353Z,5.33
2022-12-28T18:36:54.231Z,5.08
2022-12-28T18:39:23.169Z,5.22
2022-12-28T18:41:52.017Z,6.65
2022-12-28T18:44:20.954Z,8.05
2022-12-28T18:46:50.454Z,8.02
2022-12-28T18:49:20.013Z,7.11
2022-12-28T18:51:49.024Z,6.34
2022-12-28T18:54:18.318Z,5.81
2022-12-28T18:56:47.505Z,5.44
2022-12-28T18:59:16.386Z,5.15
2022-12-28T19:04:34.528Z,4.68
2022-12-28T19:07:03.892Z,4.51
2022-12-28T19:09:32.785Z,4.44
2022-12-28T19:12:02.141Z,5.44
2022-12-28T19:14:31.150Z,7.02
2022-12-28T19:17:00.330Z,8.10
2022-12-28T19:19:29.319Z,7.71
2022-12-28T19:21:59.236Z,6.83
2022-12-28T19:24:28.124Z,6.19
2022-12-28T19:26:57.254Z,5.73
2022-12-28T19:29:26.426Z,5.35
2022-12-28T19:31:55.561Z,5.04
2022-12-28T19:34:24.480Z,4.77
2022-12-28T19:36:53.596Z,4.52
2022-12-28T19:39:22.495Z,4.30
2022-12-28T19:41:51.597Z,4.11
2022-12-28T19:44:21.411Z,3.94
2022-12-28T19:46:50.657Z,3.78
2022-12-28T19:49:19.683Z,3.64
2022-12-28T19:51:48.884Z,3.51
2022-12-28T19:54:18.076Z,3.42
2022-12-28T19:56:46.980Z,3.63
2022-12-28T19:59:16.571Z,5.07
2022-12-28T20:01:45.506Z,6.55
2022-12-28T20:04:14.760Z,7.60
2022-12-28T20:06:43.832Z,8.34
2022-12-28T20:09:13.060Z,8.24
2022-12-28T20:11:41.903Z,7.26
2022-12-28T20:14:10.978Z,6.41
2022-12-28T20:16:39.878Z,5.73
2022-12-28T20:27:45.630Z,3.98
2022-12-28T20:30:14.938Z,3.74
2022-12-28T20:32:45.110Z,3.55
2022-12-28T20:35:14.142Z,3.38
2022-12-28T20:37:43.449Z,3.22
2022-12-28T20:40:12.251Z,3.10
2022-12-28T20:42:58.840Z,3.18
2022-12-28T20:45:27.904Z,4.70
2022-12-28T20:47:56.924Z,6.15
2022-12-28T20:50:25.921Z,7.16
2022-12-28T20:52:55.125Z,7.84
2022-12-28T20:55:24.067Z,8.17
2022-12-28T20:57:53.717Z,7.33
2022-12-28T21:00:23.021Z,6.35
2022-12-28T21:02:51.802Z,5.64
2022-12-28T21:05:21.213Z,5.13
2022-12-28T21:07:50.307Z,4.73
2022-12-28T21:10:19.295Z,4.40
2022-12-28T21:12:48.194Z,4.10
2022-12-28T21:15:17.608Z,3.82
2022-12-28T21:17:46.687Z,3.60
2022-12-28T21:20:15.780Z,3.42
2022-12-28T21:22:44.869Z,4.11
2022-12-28T21:25:13.756Z,5.81
2022-12-28T21:27:42.642Z,6.94
2022-12-28T21:30:11.962Z,7.69
2022-12-28T21:32:40.955Z,7.17
2022-12-28T21:35:10.036Z,6.18
2022-12-28T21:37:39.091Z,5.41
2022-12-28T21:40:08.730Z,4.81
2022-12-28T21:42:37.571Z,4.36
2022-12-28T21:45:06.831Z,4.04
2022-12-28T21:47:35.917Z,3.78
2022-12-28T21:50:04.910Z,3.55
2022-12-28T21:52:34.310Z,3.37
2022-12-28T21:55:23.440Z,3.20
2022-12-28T21:57:52.370Z,3.05
2022-12-28T22:00:39.037Z,2.94
2022-12-28T22:03:26.178Z,2.81
2022-12-28T22:06:04.636Z,2.68
2022-12-28T22:08:56.556Z,2.55
2022-12-28T22:11:43.138Z,2.43
2022-12-28T22:14:12.237Z,2.36
2022-12-28T22:16:41.160Z,2.30
2022-12-28T22:19:10.226Z,2.45
2022-12-28T22:21:39.520Z,3.90
2022-12-28T22:24:08.310Z,5.52
2022-12-28T22:26:37.156Z,6.69
2022-12-28T22:29:06.264Z,7.31
2022-12-28T22:31:35.489Z,6.48
2022-12-28T22:34:07.286Z,5.57
2022-12-28T22:36:36.790Z,4.92
2022-12-28T22:39:05.759Z,4.50
2022-12-28T22:41:34.848Z,4.18
2022-12-28T22:44:03.804Z,3.94
2022-12-28T22:46:32.892Z,3.76
2022-12-28T22:49:02.160Z,3.59
2022-12-28T22:51:31.412Z,3.44
2022-12-28T22:54:00.230Z,3.31
2022-12-28T22:56:29.090Z,3.20
2022-12-28T22:59:01.615Z,3.10
2022-12-28T23:01:35.342Z,3.02
2022-12-28T23:04:04.593Z,2.95
2022-12-28T23:06:33.929Z,2.89
2022-12-28T23:09:02.869Z,2.83
2022-12-28T23:11:39.535Z,2.79
2022-12-28T23:14:26.315Z,3.51
2022-12-28T23:16:55.297Z,5.31
2022-12-28T23:19:42.045Z,6.63
2022-12-28T23:22:28.749Z,7.65
2022-12-28T23:25:15.400Z,7.62
2022-12-28T23:27:44.354Z,6.53
2022-12-28T23:30:14.089Z,5.76
2022-12-28T23:32:42.975Z,5.16
2022-12-28T23:35:12.118Z,4.70
2022-12-28T23:37:41.033Z,4.35
2022-12-28T23:40:10.143Z,4.07
2022-12-28T23:42:39.425Z,3.87
2022-12-28T23:45:08.327Z,4.94
2022-12-28T23:47:37.214Z,6.44
2022-12-28T23:50:06.316Z,6.60
2022-12-28T23:52:35.254Z,5.77
2022-12-28T23:55:04.185Z,4.96
2022-12-28T23:57:33.433Z,4.27
